createdAt,value
2018-09-30T00:00:32.817Z,10.10
2018-09-30T00:03:05.552Z,10.10
2018-09-30T00:05:38.098Z,9.90
2018-09-30T00:08:10.591Z,10.00
2018-09-30T00:10:43.126Z,9.90
2018-09-30T00:13:15.644Z,10.00
2018-09-30T00:15:48.309Z,10.00
2018-09-30T00:18:20.778Z,10.00
2018-09-30T00:20:53.198Z,9.80
2018-09-30T00:23:25.895Z,10.00
2018-09-30T00:26:04.409Z,10.00
2018-09-30T00:28:36.907Z,10.00
2018-09-30T00:31:09.387Z,9.90
2018-09-30T00:33:48.392Z,9.80
2018-09-30T00:36:21.185Z,9.70
2018-09-30T00:38:53.933Z,9.70
2018-09-30T00:41:26.750Z,9.70
2018-09-30T00:44:00.308Z,9.60
2018-09-30T00:46:32.917Z,9.50
2018-09-30T00:49:05.874Z,9.40
2018-09-30T00:51:38.577Z,9.40
2018-09-30T00:54:12.231Z,9.50
2018-09-30T00:56:45.415Z,9.40
2018-09-30T00:59:18.138Z,9.30
2018-09-30T01:01:50.730Z,9.20
2018-09-30T01:04:23.349Z,9.30
2018-09-30T01:06:56.117Z,9.60
2018-09-30T01:09:29.092Z,9.30
2018-09-30T01:12:01.960Z,9.30
2018-09-30T01:14:34.591Z,9.30
2018-09-30T01:17:07.033Z,9.40
2018-09-30T01:19:39.454Z,9.40
2018-09-30T01:22:11.902Z,9.20
2018-09-30T01:24:44.362Z,9.30
2018-09-30T01:27:16.832Z,9.30
2018-09-30T01:29:49.331Z,9.20
2018-09-30T01:32:21.967Z,9.40
2018-09-30T01:34:54.881Z,9.60
2018-09-30T01:37:27.419Z,9.40
2018-09-30T01:39:59.921Z,9.40
2018-09-30T01:42:32.374Z,9.60
2018-09-30T01:45:04.951Z,9.60
2018-09-30T01:47:37.435Z,9.50
2018-09-30T01:50:09.829Z,9.30
2018-09-30T01:52:55.938Z,9.30
2018-09-30T01:55:28.429Z,9.20
2018-09-30T01:58:01.079Z,9.30
2018-09-30T02:00:33.745Z,9.30
2018-09-30T02:03:06.475Z,9.50
2018-09-30T02:05:40.373Z,9.40
2018-09-30T02:08:12.909Z,9.40
2018-09-30T02:10:45.353Z,9.50
2018-09-30T02:13:17.777Z,9.30
2018-09-30T02:15:50.251Z,9.40
2018-09-30T02:18:22.654Z,9.20
2018-09-30T02:20:55.108Z,9.20
2018-09-30T02:23:27.760Z,9.20
2018-09-30T02:26:00.824Z,9.30
2018-09-30T02:28:33.321Z,9.30
2018-09-30T02:31:05.954Z,9.40
2018-09-30T02:33:38.500Z,9.30
2018-09-30T02:36:10.909Z,9.20
2018-09-30T02:38:43.318Z,9.20
2018-09-30T02:41:15.776Z,9.30
2018-09-30T02:43:48.248Z,9.40
2018-09-30T02:46:20.728Z,9.40
2018-09-30T02:48:53.134Z,9.10
2018-09-30T02:51:25.670Z,8.90
2018-09-30T02:53:58.319Z,8.80
2018-09-30T02:56:30.755Z,8.80
2018-09-30T02:59:03.354Z,8.70
2018-09-30T03:01:35.770Z,8.70
2018-09-30T03:04:08.178Z,8.70
2018-09-30T03:06:47.467Z,8.70
2018-09-30T03:09:20.029Z,8.60
2018-09-30T03:11:52.466Z,8.50
2018-09-30T03:14:25.355Z,8.70
2018-09-30T03:16:57.775Z,8.80
2018-09-30T03:19:30.271Z,9.00
2018-09-30T03:22:02.752Z,8.90
2018-09-30T03:24:35.183Z,8.90
2018-09-30T03:27:07.739Z,8.90
2018-09-30T03:29:40.171Z,9.10
2018-09-30T03:32:12.936Z,9.10
2018-09-30T03:34:45.429Z,9.10
2018-09-30T03:37:17.899Z,9.00
2018-09-30T03:39:50.365Z,9.00
2018-09-30T03:42:22.832Z,9.10
2018-09-30T03:44:55.374Z,9.00
2018-09-30T03:47:27.869Z,8.90
2018-09-30T03:50:00.314Z,8.80
2018-09-30T03:52:32.706Z,8.70
2018-09-30T03:55:05.226Z,8.80
2018-09-30T03:57:37.635Z,8.90
2018-09-30T04:00:10.105Z,8.80
2018-09-30T04:02:42.560Z,8.70
2018-09-30T04:05:15.044Z,8.80
2018-09-30T04:07:47.583Z,8.80
2018-09-30T04:10:20.111Z,8.80
2018-09-30T04:12:52.592Z,8.60
2018-09-30T04:15:25.157Z,8.60
2018-09-30T04:17:57.627Z,8.60
2018-09-30T04:20:30.304Z,8.50
2018-09-30T04:23:02.761Z,8.60
2018-09-30T04:25:35.235Z,8.70
2018-09-30T04:28:07.680Z,8.80
2018-09-30T04:30:40.175Z,8.60
2018-09-30T04:33:12.671Z,8.80
2018-09-30T04:35:45.213Z,8.70
2018-09-30T04:38:17.586Z,8.70
2018-09-30T04:40:50.029Z,8.70
2018-09-30T04:43:22.511Z,8.70
2018-09-30T04:45:54.937Z,8.60
2018-09-30T04:48:27.735Z,8.50
2018-09-30T04:51:00.204Z,8.60
2018-09-30T04:53:32.678Z,8.60
2018-09-30T04:56:05.101Z,8.60
2018-09-30T04:58:37.515Z,8.40
2018-09-30T05:01:10.002Z,8.60
2018-09-30T05:03:42.482Z,8.50
2018-09-30T05:06:15.118Z,8.50
2018-09-30T05:08:49.499Z,8.40
2018-09-30T05:11:21.904Z,8.40
2018-09-30T05:13:54.387Z,8.40
2018-09-30T05:16:26.902Z,8.40
2018-09-30T05:18:59.763Z,8.40
2018-09-30T05:21:32.226Z,8.30
2018-09-30T05:24:05.034Z,8.30
2018-09-30T05:26:38.052Z,8.30
2018-09-30T05:29:10.963Z,8.40
2018-09-30T05:31:43.460Z,8.40
2018-09-30T05:34:15.990Z,8.50
2018-09-30T05:36:48.505Z,8.40
2018-09-30T05:39:21.659Z,8.50
2018-09-30T05:41:54.401Z,8.40
2018-09-30T05:44:26.912Z,8.40
2018-09-30T05:47:00.234Z,8.50
2018-09-30T05:49:32.898Z,8.50
2018-09-30T05:52:05.370Z,8.40
2018-09-30T05:54:37.808Z,8.50
2018-09-30T05:57:10.271Z,8.60
2018-09-30T05:59:42.723Z,8.50
2018-09-30T06:02:15.151Z,8.50
2018-09-30T06:04:48.047Z,8.50
2018-09-30T06:07:20.544Z,8.60
2018-09-30T06:09:53.964Z,8.40
2018-09-30T06:12:26.719Z,8.50
2018-09-30T06:14:59.428Z,8.60
2018-09-30T06:17:31.871Z,8.50
2018-09-30T06:20:04.688Z,8.50
2018-09-30T06:22:37.381Z,8.50
2018-09-30T06:25:10.110Z,8.60
2018-09-30T06:27:42.495Z,8.60
2018-09-30T06:30:15.894Z,8.60
2018-09-30T06:32:48.604Z,8.70
2018-09-30T06:35:21.002Z,8.80
2018-09-30T06:37:53.550Z,8.80
2018-09-30T06:40:26.118Z,8.80
2018-09-30T06:42:58.542Z,8.80
2018-09-30T06:45:31.185Z,8.90
2018-09-30T06:48:04.174Z,9.10
2018-09-30T06:50:38.005Z,9.10
2018-09-30T06:53:10.742Z,9.10
2018-09-30T06:55:43.181Z,9.10
2018-09-30T06:58:15.697Z,9.30
2018-09-30T07:00:48.222Z,9.30
2018-09-30T07:03:20.872Z,9.40
2018-09-30T07:05:53.917Z,9.50
2018-09-30T07:08:26.332Z,9.50
2018-09-30T07:10:59.653Z,9.50
2018-09-30T07:13:32.032Z,9.50
2018-09-30T07:16:04.564Z,9.50
2018-09-30T07:18:37.256Z,9.60
2018-09-30T07:21:09.949Z,9.70
2018-09-30T07:23:42.692Z,9.80
2018-09-30T07:26:15.396Z,9.80
2018-09-30T07:28:47.903Z,9.90
2018-09-30T07:31:20.497Z,9.90
2018-09-30T07:33:52.957Z,9.80
2018-09-30T07:36:25.969Z,9.90
2018-09-30T07:38:58.658Z,9.90
2018-09-30T07:41:31.431Z,10.00
2018-09-30T07:44:03.834Z,10.10
2018-09-30T07:46:36.505Z,10.30
2018-09-30T07:49:09.166Z,10.30
2018-09-30T07:51:41.709Z,10.20
2018-09-30T07:54:14.337Z,10.20
2018-09-30T07:56:47.037Z,10.30
2018-09-30T07:59:19.431Z,10.40
2018-09-30T08:01:52.050Z,10.40
2018-09-30T08:04:24.544Z,10.40
2018-09-30T08:06:57.024Z,10.40
2018-09-30T08:09:29.431Z,10.50
2018-09-30T08:12:03.132Z,10.60
2018-09-30T08:14:36.291Z,10.70
2018-09-30T08:17:08.910Z,10.90
2018-09-30T08:19:41.934Z,11.00
2018-09-30T08:22:14.687Z,11.10
2018-09-30T08:24:47.239Z,11.10
2018-09-30T08:27:19.694Z,11.20
2018-09-30T08:29:52.223Z,11.30
2018-09-30T08:32:24.659Z,11.40
2018-09-30T08:34:57.433Z,11.50
2018-09-30T08:37:35.564Z,11.60
2018-09-30T08:40:08.808Z,11.60
2018-09-30T08:42:41.541Z,11.70
2018-09-30T08:45:14.349Z,11.70
2018-09-30T08:47:47.115Z,11.70
2018-09-30T08:50:19.833Z,11.80
2018-09-30T08:52:52.454Z,11.90
2018-09-30T08:55:25.316Z,11.90
2018-09-30T08:57:58.022Z,12.00
2018-09-30T09:00:30.835Z,12.20
2018-09-30T09:03:04.370Z,12.30
2018-09-30T09:05:37.056Z,12.50
2018-09-30T09:08:10.076Z,12.50
2018-09-30T09:10:42.884Z,12.50
2018-09-30T09:13:15.562Z,12.60
2018-09-30T09:15:48.303Z,12.70
2018-09-30T09:18:20.846Z,12.70
2018-09-30T09:20:53.330Z,12.90
2018-09-30T09:23:26.079Z,12.90
2018-09-30T09:25:58.499Z,12.90
2018-09-30T09:28:31.752Z,13.00
2018-09-30T09:31:04.274Z,13.10
2018-09-30T09:33:36.854Z,13.20
2018-09-30T09:36:10.357Z,13.20
2018-09-30T09:38:42.954Z,13.30
2018-09-30T09:41:16.210Z,13.20
2018-09-30T09:43:48.883Z,13.40
2018-09-30T09:46:22.067Z,13.40
2018-09-30T09:48:54.912Z,13.60
2018-09-30T09:51:27.772Z,13.70
2018-09-30T09:54:03.666Z,13.80
2018-09-30T09:56:36.365Z,14.00
2018-09-30T09:59:08.940Z,14.00
2018-09-30T10:01:41.875Z,14.20
2018-09-30T10:04:14.756Z,14.30
2018-09-30T10:06:47.588Z,14.30
2018-09-30T10:09:20.145Z,14.30
2018-09-30T10:11:53.259Z,14.30
2018-09-30T10:14:26.270Z,14.40
2018-09-30T10:16:59.119Z,14.50
2018-09-30T10:19:32.431Z,14.60
2018-09-30T10:22:05.355Z,14.80
2018-09-30T10:27:11.101Z,15.00
2018-09-30T10:32:16.271Z,15.20
2018-09-30T10:34:48.882Z,15.30
2018-09-30T10:37:21.881Z,15.40
2018-09-30T10:39:54.556Z,15.40
2018-09-30T10:44:59.777Z,15.60
2018-09-30T10:50:05.523Z,15.70
2018-09-30T10:52:38.339Z,15.90
2018-09-30T10:55:11.300Z,15.90
2018-09-30T10:57:44.222Z,15.90
2018-09-30T11:00:17.052Z,16.00
2018-09-30T11:02:49.900Z,16.00
2018-09-30T11:05:22.505Z,15.90
2018-09-30T11:07:55.280Z,16.00
2018-09-30T11:13:01.480Z,16.10
2018-09-30T11:15:34.088Z,16.10
2018-09-30T11:18:06.674Z,16.20
2018-09-30T11:20:39.159Z,16.20
2018-09-30T11:23:11.649Z,16.30
2018-09-30T11:25:44.238Z,16.40
2018-09-30T11:28:16.908Z,16.40
2018-09-30T11:30:49.412Z,16.50
2018-09-30T11:33:21.908Z,16.50
2018-09-30T11:35:54.560Z,16.50
2018-09-30T11:38:27.110Z,16.70
2018-09-30T11:40:59.790Z,16.80
2018-09-30T11:43:32.499Z,16.80
2018-09-30T11:46:05.314Z,16.80
2018-09-30T11:48:38.182Z,16.80
2018-09-30T11:51:11.074Z,16.70
2018-09-30T11:53:43.955Z,16.70
2018-09-30T11:56:17.771Z,16.80
2018-09-30T11:58:50.553Z,16.80
2018-09-30T12:01:23.233Z,16.90
2018-09-30T12:03:55.937Z,17.00
2018-09-30T12:06:28.774Z,17.10
2018-09-30T12:09:01.323Z,17.00
2018-09-30T12:11:34.007Z,16.90
2018-09-30T12:14:07.146Z,16.90
2018-09-30T12:16:39.948Z,16.90
2018-09-30T12:19:12.758Z,17.00
2018-09-30T12:21:45.655Z,17.10
2018-09-30T12:24:18.541Z,17.10
2018-09-30T12:26:51.309Z,17.00
2018-09-30T12:29:24.132Z,17.20
2018-09-30T12:31:56.954Z,17.20
2018-09-30T12:34:29.961Z,17.20
2018-09-30T12:37:02.921Z,17.10
2018-09-30T12:39:36.318Z,17.10
2018-09-30T12:42:09.201Z,17.20
2018-09-30T12:44:42.149Z,17.30
2018-09-30T12:47:15.252Z,17.20
2018-09-30T12:49:48.121Z,17.20
2018-09-30T12:52:21.310Z,17.30
2018-09-30T12:54:53.901Z,17.30
2018-09-30T12:57:26.904Z,17.30
2018-09-30T12:59:59.656Z,17.30
2018-09-30T13:02:32.774Z,17.30
2018-09-30T13:05:05.798Z,17.40
2018-09-30T13:07:38.799Z,17.30
2018-09-30T13:10:11.590Z,17.30
2018-09-30T13:12:44.386Z,17.30
2018-09-30T13:15:17.225Z,17.30
2018-09-30T13:17:49.927Z,17.40
2018-09-30T13:20:22.707Z,17.50
2018-09-30T13:22:55.220Z,17.50
2018-09-30T13:25:27.881Z,17.50
2018-09-30T13:28:00.643Z,17.50
2018-09-30T13:30:33.276Z,17.50
2018-09-30T13:33:06.146Z,17.50
2018-09-30T13:35:39.365Z,17.60
2018-09-30T13:38:12.614Z,17.60
2018-09-30T13:40:45.443Z,17.40
2018-09-30T13:43:18.198Z,17.50
2018-09-30T13:45:50.930Z,17.50
2018-09-30T13:48:23.749Z,17.70
2018-09-30T13:50:56.313Z,17.60
2018-09-30T13:53:28.900Z,17.70
2018-09-30T13:56:01.643Z,17.70
2018-09-30T13:58:34.430Z,17.50
2018-09-30T14:01:07.052Z,17.60
2018-09-30T14:03:39.783Z,17.60
2018-09-30T14:06:12.294Z,17.60
2018-09-30T14:08:45.261Z,17.60
2018-09-30T14:11:17.856Z,17.70
2018-09-30T14:13:50.406Z,17.60
2018-09-30T14:16:22.967Z,17.60
2018-09-30T14:18:55.921Z,17.60
2018-09-30T14:21:28.611Z,17.60
2018-09-30T14:24:01.569Z,17.60
2018-09-30T14:26:33.999Z,17.70
2018-09-30T14:29:06.955Z,17.60
2018-09-30T14:31:39.385Z,17.70
2018-09-30T14:34:12.998Z,17.60
2018-09-30T14:36:45.650Z,17.60
2018-09-30T14:39:18.143Z,17.60
2018-09-30T14:41:50.652Z,17.60
2018-09-30T14:44:23.223Z,17.50
2018-09-30T14:46:55.702Z,17.50
2018-09-30T14:49:28.588Z,17.40
2018-09-30T14:52:01.251Z,17.50
2018-09-30T14:54:33.859Z,17.60
2018-09-30T14:57:06.387Z,17.50
2018-09-30T14:59:38.908Z,17.50
2018-09-30T15:02:11.495Z,17.50
2018-09-30T15:04:43.927Z,17.40
2018-09-30T15:07:16.486Z,17.40
2018-09-30T15:09:48.942Z,17.30
2018-09-30T15:12:21.366Z,17.30
2018-09-30T15:14:53.811Z,17.20
2018-09-30T15:17:26.320Z,17.20
2018-09-30T15:19:58.865Z,17.20
2018-09-30T15:22:31.311Z,17.20
2018-09-30T15:25:04.165Z,17.00
2018-09-30T15:27:37.155Z,17.00
2018-09-30T15:30:09.719Z,17.00
2018-09-30T15:32:42.305Z,17.00
2018-09-30T15:35:14.830Z,17.00
2018-09-30T15:37:47.726Z,17.00
2018-09-30T15:40:20.348Z,16.90
2018-09-30T15:42:54.662Z,16.90
2018-09-30T15:45:27.829Z,16.90
2018-09-30T15:48:00.303Z,16.90
2018-09-30T15:50:33.176Z,16.90
2018-09-30T15:53:06.339Z,16.90
2018-09-30T15:55:38.905Z,16.70
2018-09-30T15:58:12.227Z,16.60
2018-09-30T16:00:44.934Z,16.50
2018-09-30T16:03:18.072Z,16.40
2018-09-30T16:08:24.590Z,16.40
2018-09-30T16:10:58.501Z,16.30
2018-09-30T16:13:31.976Z,16.20
2018-09-30T16:16:05.709Z,16.20
2018-09-30T16:18:38.887Z,16.20
2018-09-30T16:21:15.392Z,16.20
2018-09-30T16:23:48.340Z,16.10
2018-09-30T16:26:21.939Z,16.20
2018-09-30T16:28:55.579Z,16.20
2018-09-30T16:31:30.012Z,16.10
2018-09-30T16:34:02.702Z,16.10
2018-09-30T16:36:36.188Z,16.00
2018-09-30T16:39:10.032Z,15.90
2018-09-30T16:41:44.241Z,15.80
2018-09-30T16:44:17.064Z,15.80
2018-09-30T16:46:50.092Z,15.70
2018-09-30T16:49:22.706Z,15.60
2018-09-30T16:51:55.558Z,15.50
2018-09-30T16:54:28.246Z,15.30
2018-09-30T16:57:01.304Z,15.20
2018-09-30T16:59:35.230Z,15.20
2018-09-30T17:02:08.698Z,15.10
2018-09-30T17:04:42.149Z,15.00
2018-09-30T17:07:14.863Z,15.00
2018-09-30T17:09:48.401Z,14.80
2018-09-30T17:12:21.420Z,14.70
2018-09-30T17:14:54.022Z,14.70
2018-09-30T17:17:26.577Z,14.60
2018-09-30T17:19:59.097Z,14.50
2018-09-30T17:22:32.004Z,14.40
2018-09-30T17:25:04.860Z,14.30
2018-09-30T17:27:37.605Z,14.20
2018-09-30T17:30:10.482Z,14.20
2018-09-30T17:32:43.299Z,14.10
2018-09-30T17:35:15.807Z,14.10
2018-09-30T17:37:48.283Z,14.00
2018-09-30T17:40:21.101Z,13.90
2018-09-30T17:42:54.796Z,13.90
2018-09-30T17:45:27.856Z,13.80
2018-09-30T17:48:00.912Z,13.80
2018-09-30T17:50:34.719Z,13.70
2018-09-30T17:53:07.620Z,13.60
2018-09-30T17:55:40.489Z,13.60
2018-09-30T17:58:13.230Z,13.50
2018-09-30T18:00:46.218Z,13.50
2018-09-30T18:03:19.446Z,13.40
2018-09-30T18:05:52.311Z,13.30
2018-09-30T18:08:25.284Z,13.30
2018-09-30T18:10:58.391Z,13.30
2018-09-30T18:13:30.976Z,13.20
2018-09-30T18:16:03.944Z,13.10
2018-09-30T18:18:36.822Z,13.10
2018-09-30T18:21:09.553Z,13.00
2018-09-30T18:23:43.669Z,13.00
2018-09-30T18:26:17.010Z,13.00
2018-09-30T18:28:49.471Z,12.90
2018-09-30T18:31:22.175Z,12.90
2018-09-30T18:33:54.775Z,12.80
2018-09-30T18:36:27.271Z,12.80
2018-09-30T18:38:59.892Z,12.80
2018-09-30T18:41:32.498Z,12.60
2018-09-30T18:44:05.362Z,12.60
2018-09-30T18:46:37.969Z,12.60
2018-09-30T18:49:11.159Z,12.60
2018-09-30T18:51:43.895Z,12.50
2018-09-30T18:54:16.727Z,12.50
2018-09-30T18:56:49.708Z,12.50
2018-09-30T18:59:22.611Z,12.50
2018-09-30T19:01:55.750Z,12.40
2018-09-30T19:04:28.475Z,12.40
2018-09-30T19:07:01.433Z,12.40
2018-09-30T19:09:34.599Z,12.30
2018-09-30T19:12:07.602Z,12.20
2018-09-30T19:14:40.451Z,12.20
2018-09-30T19:17:13.684Z,12.20
2018-09-30T19:19:47.159Z,12.30
2018-09-30T19:22:19.819Z,12.20
2018-09-30T19:24:52.633Z,12.10
2018-09-30T19:27:25.334Z,12.20
2018-09-30T19:29:59.629Z,12.10
2018-09-30T19:32:34.261Z,12.10
2018-09-30T19:35:09.206Z,12.10
2018-09-30T19:37:42.934Z,12.10
2018-09-30T19:40:16.273Z,12.00
2018-09-30T19:42:49.011Z,12.00
2018-09-30T19:45:21.983Z,11.90
2018-09-30T19:47:55.691Z,11.90
2018-09-30T19:50:28.253Z,11.90
2018-09-30T19:53:01.030Z,11.90
2018-09-30T19:55:36.267Z,11.80
2018-09-30T19:58:09.317Z,11.80
2018-09-30T20:00:42.527Z,11.70
2018-09-30T20:03:15.661Z,11.70
2018-09-30T20:05:48.632Z,11.50
2018-09-30T20:08:21.903Z,11.40
2018-09-30T20:10:54.800Z,11.30
2018-09-30T20:13:28.142Z,11.30
2018-09-30T20:16:00.689Z,11.20
2018-09-30T20:18:33.277Z,11.10
2018-09-30T20:21:08.325Z,11.10
2018-09-30T20:23:41.355Z,11.10
2018-09-30T20:26:14.862Z,11.10
2018-09-30T20:28:49.141Z,11.10
2018-09-30T20:31:22.002Z,11.00
2018-09-30T20:33:54.740Z,11.00
2018-09-30T20:36:27.408Z,11.00
2018-09-30T20:39:00.677Z,11.00
2018-09-30T20:41:33.566Z,11.00
2018-09-30T20:44:06.268Z,11.00
2018-09-30T20:46:40.179Z,10.90
2018-09-30T20:49:13.536Z,10.90
2018-09-30T20:51:46.365Z,10.90
2018-09-30T20:54:18.816Z,10.80
2018-09-30T20:56:51.482Z,10.70
2018-09-30T20:59:23.925Z,10.70
2018-09-30T21:01:56.430Z,10.60
2018-09-30T21:04:29.593Z,10.60
2018-09-30T21:07:02.681Z,10.60
2018-09-30T21:09:35.421Z,10.60
2018-09-30T21:12:08.704Z,10.70
2018-09-30T21:14:41.346Z,10.70
2018-09-30T21:17:18.237Z,10.60
2018-09-30T21:19:51.078Z,10.50
2018-09-30T21:22:23.936Z,10.50
2018-09-30T21:24:56.608Z,10.50
2018-09-30T21:27:29.386Z,10.40
2018-09-30T21:30:02.081Z,10.50
2018-09-30T21:32:34.666Z,10.40
2018-09-30T21:35:07.589Z,10.30
2018-09-30T21:37:40.296Z,10.30
2018-09-30T21:40:13.092Z,10.30
2018-09-30T21:42:45.678Z,10.30
2018-09-30T21:45:18.461Z,10.20
2018-09-30T21:47:50.968Z,10.20
2018-09-30T21:50:23.435Z,10.20
2018-09-30T21:52:55.937Z,10.10
2018-09-30T21:55:28.574Z,10.10
2018-09-30T21:58:01.184Z,10.00
2018-09-30T22:00:37.736Z,10.10
2018-09-30T22:03:11.330Z,10.00
2018-09-30T22:05:43.803Z,9.90
2018-09-30T22:08:16.344Z,10.00
2018-09-30T22:10:48.996Z,9.90
2018-09-30T22:13:21.475Z,9.80
2018-09-30T22:15:54.205Z,10.00
2018-09-30T22:18:27.401Z,10.00
2018-09-30T22:21:00.176Z,9.90
2018-09-30T22:23:32.646Z,9.90
2018-09-30T22:26:05.359Z,9.80
2018-09-30T22:28:37.889Z,9.90
2018-09-30T22:31:10.521Z,9.80
2018-09-30T22:33:43.034Z,9.70
2018-09-30T22:36:15.664Z,9.60
2018-09-30T22:41:21.100Z,9.60
2018-09-30T22:43:53.537Z,9.50
2018-09-30T22:46:25.977Z,9.50
2018-09-30T22:48:58.576Z,9.50
2018-09-30T22:51:31.250Z,9.50
2018-09-30T22:54:03.668Z,9.50
2018-09-30T22:56:36.465Z,9.40
2018-09-30T22:59:09.774Z,9.30
2018-09-30T23:01:42.213Z,9.30
2018-09-30T23:04:14.662Z,9.30
2018-09-30T23:06:47.062Z,9.20
2018-09-30T23:09:19.579Z,9.20
2018-09-30T23:11:52.030Z,9.20
2018-09-30T23:14:24.615Z,9.20
2018-09-30T23:16:57.006Z,9.10
2018-09-30T23:19:29.491Z,9.20
2018-09-30T23:22:01.889Z,9.20
2018-09-30T23:24:34.431Z,9.20
2018-09-30T23:27:06.847Z,9.30
2018-09-30T23:29:39.703Z,9.30
2018-09-30T23:32:12.376Z,9.40
2018-09-30T23:34:44.859Z,9.50
2018-09-30T23:37:17.244Z,9.50
2018-09-30T23:39:49.733Z,9.60
2018-09-30T23:42:22.178Z,9.70
2018-09-30T23:44:54.743Z,9.60
2018-09-30T23:47:27.698Z,9.50
2018-09-30T23:50:00.482Z,9.60
2018-09-30T23:52:33.011Z,9.60
2018-09-30T23:55:05.771Z,9.60
2018-09-30T23:57:38.479Z,9.60
